Cold Bay Airport Cold Bay US
ICAO: PACD
IATA:
Category: Medium
Scheduled Services:

Elevation: 96 ft
TransAlt. 18000 ft.

Airport Communications:
ASOS:135.75
ANCHORAGE CNTR:118.5
CTAF:123.6
RDO:123.6
KENAI RDO:123.6

PACD Zoom In..

If Map Doesn't Load, Click Here

Runways:

(A) RW 08 length 6235 ft width 150 ft
---- / hdg 83

(B) RW 15 length 10180 ft width 150 ft
ILS 110.30 / hdg 146

(C) RW 26 length 6235 ft width 150 ft
---- / hdg 263

(D) RW 33 length 10180 ft width 150 ft
---- / hdg 326

Location; PACD
Day. 21 / Time. 14.53 Zulu
* Altimeter: 29.94
* Temperature: 11° c. 51.8°f.
* Wind from: 150° Speed 10 kn with Gusts up to 21 kn.
Dewpoint: 10° c.
Visibility: 10 Statute Miles.
Clouds: Overcast 8500 ft.
Conditions: Light Rain.

PACD 211453Z AUTO 15010G21KT 130V200 10SM -RA OVC085 11/10 A2994 RMK AO2 PK WND 12029/1441 SLP139 P0001 60008 T01110100 56045 TSNO


Wind From 150°
Speed 10 kn.

 
 
jpsmedia.com for Web Design worldairports.se 2018   terms of use